Time;durP1;ratioP1;P1;durP2;ratioP2;P2;SDS_P1;SDS_P2;PMS_P1;PMS_P2;Temp;Humidity;BMP_temperature;BMP_pressure;BME280_temperature;BME280_humidity;BME280_pressure;Samples;Min_cycle;Max_cycle;Signal;HPM_P1;HPM_P2
2023/01/22 00:02:18;;;;;;;51.90;34.00;;;;;;;;;;5055359;28;20175;-70
2023/01/22 00:04:43;;;;;;;47.47;30.83;;;;;;;;;;5055353;28;20232;-72
2023/01/22 00:07:10;;;;;;;51.17;32.63;;;;;;;;;;5037196;28;20249;-71
2023/01/22 00:09:36;;;;;;;47.53;31.10;;;;;;;;;;5055816;28;20171;-71
2023/01/22 00:12:02;;;;;;;48.10;30.17;;;;;;;;;;5055183;28;20968;-71
2023/01/22 00:14:28;;;;;;;44.90;30.73;;;;;;;;;;5056135;28;20492;-70
2023/01/22 00:16:54;;;;;;;48.13;32.57;;;;;;;;;;5055338;28;20437;-70
2023/01/22 00:19:20;;;;;;;48.80;31.33;;;;;;;;;;5055499;28;20412;-70
2023/01/22 00:21:46;;;;;;;50.70;32.40;;;;;;;;;;5055541;28;20189;-71
2023/01/22 00:24:12;;;;;;;48.60;32.20;;;;;;;;;;5037370;28;20182;-72
2023/01/22 00:26:38;;;;;;;47.07;31.07;;;;;;;;;;5058328;28;20699;-70
2023/01/22 00:29:04;;;;;;;46.87;31.03;;;;;;;;;;5056829;28;20413;-71
2023/01/22 00:31:30;;;;;;;49.07;30.77;;;;;;;;;;5037368;28;20431;-70
2023/01/22 00:33:56;;;;;;;44.87;30.20;;;;;;;;;;5055070;28;20174;-70
2023/01/22 00:36:22;;;;;;;45.90;29.90;;;;;;;;;;5054965;28;20740;-71
2023/01/22 00:38:49;;;;;;;40.53;28.73;;;;;;;;;;5055049;28;20179;-70
2023/01/22 00:41:15;;;;;;;47.37;30.17;;;;;;;;;;5055112;28;20529;-71
2023/01/22 00:43:41;;;;;;;44.70;30.80;;;;;;;;;;5055715;28;20423;-70
2023/01/22 00:46:08;;;;;;;41.37;29.20;;;;;;;;;;5037397;28;20460;-70
2023/01/22 00:48:35;;;;;;;43.97;28.03;;;;;;;;;;5055361;28;20467;-71
2023/01/22 00:51:01;;;;;;;41.50;29.13;;;;;;;;;;5058729;28;20488;-73
2023/01/22 00:53:26;;;;;;;40.87;29.10;;;;;;;;;;5092778;22;20542;-69
2023/01/22 00:55:53;;;;;;;41.80;29.07;;;;;;;;;;5073648;28;20854;-70
2023/01/22 00:58:19;;;;;;;40.13;27.30;;;;;;;;;;5073534;28;20260;-71
2023/01/22 01:00:45;;;;;;;41.67;28.40;;;;;;;;;;5073936;28;20420;-68
2023/01/22 01:03:29;;;;;;;41.93;29.03;;;;;;;;;;5074533;28;20201;-69
2023/01/22 01:05:55;;;;;;;39.67;28.00;;;;;;;;;;5074435;28;20806;-68
2023/01/22 01:08:21;;;;;;;41.63;28.70;;;;;;;;;;5074316;28;20906;-69
2023/01/22 01:10:47;;;;;;;41.93;28.20;;;;;;;;;;5074196;28;20405;-69
2023/01/22 01:13:13;;;;;;;37.40;27.47;;;;;;;;;;5072770;28;20444;-69
2023/01/22 01:15:40;;;;;;;37.50;27.67;;;;;;;;;;5073484;28;20949;-69
2023/01/22 01:18:11;;;;;;;41.50;27.47;;;;;;;;;;5074083;28;20308;-69
2023/01/22 01:20:37;;;;;;;43.53;28.40;;;;;;;;;;5074825;28;20439;-69
2023/01/22 01:23:03;;;;;;;36.53;27.47;;;;;;;;;;5074023;28;20428;-70
2023/01/22 01:25:29;;;;;;;37.70;27.20;;;;;;;;;;5072862;28;20178;-70
2023/01/22 01:27:55;;;;;;;40.53;27.00;;;;;;;;;;5078777;28;20174;-69
2023/01/22 01:30:21;;;;;;;35.73;26.33;;;;;;;;;;5076435;28;20173;-70
2023/01/22 01:32:48;;;;;;;36.73;27.33;;;;;;;;;;5075073;28;20198;-69
2023/01/22 01:35:14;;;;;;;41.27;28.50;;;;;;;;;;5076280;28;20177;-69
2023/01/22 01:37:40;;;;;;;38.37;25.83;;;;;;;;;;5075262;28;20425;-68
2023/01/22 01:40:06;;;;;;;42.40;28.97;;;;;;;;;;5075099;28;20643;-70
2023/01/22 01:42:34;;;;;;;44.37;28.53;;;;;;;;;;5074566;28;20209;-69
2023/01/22 01:45:19;;;;;;;38.33;27.67;;;;;;;;;;5074785;28;20512;-69
2023/01/22 01:47:45;;;;;;;46.10;31.20;;;;;;;;;;5075029;28;20451;-71
2023/01/22 01:50:12;;;;;;;42.13;29.10;;;;;;;;;;5074659;28;20409;-69
2023/01/22 01:52:38;;;;;;;39.33;27.27;;;;;;;;;;5075380;28;20525;-69
2023/01/22 01:55:04;;;;;;;41.00;28.43;;;;;;;;;;5073682;28;20951;-71
2023/01/22 01:57:32;;;;;;;39.97;27.47;;;;;;;;;;5073576;28;20417;-69
2023/01/22 01:59:58;;;;;;;35.97;25.50;;;;;;;;;;5075178;28;20412;-69
2023/01/22 02:02:24;;;;;;;38.30;26.20;;;;;;;;;;5077814;28;20411;-69
2023/01/22 02:04:50;;;;;;;39.77;27.77;;;;;;;;;;5078525;28;20772;-70
2023/01/22 02:07:17;;;;;;;37.97;26.73;;;;;;;;;;5078154;28;20297;-69
2023/01/22 02:09:43;;;;;;;34.70;26.53;;;;;;;;;;5078279;28;20522;-69
2023/01/22 02:12:09;;;;;;;40.70;26.90;;;;;;;;;;5077964;28;20442;-69
2023/01/22 02:14:38;;;;;;;39.97;28.83;;;;;;;;;;5078062;28;20203;-69
2023/01/22 02:17:12;;;;;;;38.53;27.27;;;;;;;;;;5080300;28;20416;-69
2023/01/22 02:19:38;;;;;;;36.87;25.83;;;;;;;;;;5077130;28;20480;-69
2023/01/22 02:22:16;;;;;;;35.57;25.50;;;;;;;;;;5077005;28;20430;-70
2023/01/22 02:24:44;;;;;;;35.17;25.27;;;;;;;;;;5078151;28;20419;-69
2023/01/22 02:27:10;;;;;;;36.43;25.50;;;;;;;;;;5078360;28;20455;-69
2023/01/22 02:29:36;;;;;;;33.20;25.60;;;;;;;;;;5076443;28;20505;-70
2023/01/22 02:32:02;;;;;;;33.10;25.20;;;;;;;;;;5077477;28;20458;-68
2023/01/22 02:34:28;;;;;;;32.27;24.03;;;;;;;;;;5077466;28;20432;-69
2023/01/22 02:36:54;;;;;;;31.93;23.97;;;;;;;;;;5077559;28;20208;-70
2023/01/22 02:39:20;;;;;;;30.73;23.90;;;;;;;;;;5077414;28;20182;-69
2023/01/22 02:41:46;;;;;;;32.80;25.20;;;;;;;;;;5077234;28;20431;-69
2023/01/22 02:44:12;;;;;;;33.47;24.77;;;;;;;;;;5077001;28;20236;-69
2023/01/22 02:46:38;;;;;;;35.37;25.43;;;;;;;;;;5076353;28;20219;-68
2023/01/22 02:49:04;;;;;;;37.17;26.13;;;;;;;;;;5075045;28;20182;-69
2023/01/22 02:51:30;;;;;;;33.20;24.47;;;;;;;;;;5076598;28;20299;-71
2023/01/22 02:53:56;;;;;;;31.50;25.23;;;;;;;;;;5074955;28;20497;-69
2023/01/22 02:56:22;;;;;;;37.27;26.07;;;;;;;;;;5074918;28;20189;-69
2023/01/22 02:58:48;;;;;;;32.00;24.63;;;;;;;;;;5076184;28;20413;-69
2023/01/22 03:01:19;;;;;;;30.07;23.77;;;;;;;;;;5076212;28;20178;-69
2023/01/22 03:03:49;;;;;;;34.40;23.80;;;;;;;;;;5076378;28;20523;-69
2023/01/22 03:06:20;;;;;;;32.50;23.90;;;;;;;;;;5075761;28;20550;-69
2023/01/22 03:08:46;;;;;;;32.10;24.67;;;;;;;;;;5076840;28;20401;-68
2023/01/22 03:11:12;;;;;;;32.37;23.40;;;;;;;;;;5074780;28;20495;-69
2023/01/22 03:21:52;;;;;;;27.93;22.13;;;;;;;;;;5077297;28;20379;-69
2023/01/22 03:24:18;;;;;;;29.07;21.47;;;;;;;;;;5076749;28;20502;-69
2023/01/22 03:26:44;;;;;;;29.10;21.53;;;;;;;;;;5076383;28;20975;-69
2023/01/22 03:29:10;;;;;;;30.27;20.47;;;;;;;;;;5074293;28;20689;-69
2023/01/22 03:31:36;;;;;;;28.73;21.47;;;;;;;;;;5075715;28;20556;-71
2023/01/22 03:34:02;;;;;;;28.83;20.33;;;;;;;;;;5075695;28;20663;-69
2023/01/22 03:36:28;;;;;;;25.40;19.43;;;;;;;;;;5082219;28;20181;-69
2023/01/22 03:38:54;;;;;;;23.90;19.73;;;;;;;;;;5088796;28;20186;-70
2023/01/22 03:41:19;;;;;;;27.40;21.90;;;;;;;;;;5090763;28;20421;-70
2023/01/22 03:43:46;;;;;;;28.40;21.03;;;;;;;;;;5090851;28;20198;-69
2023/01/22 03:46:16;;;;;;;28.33;22.37;;;;;;;;;;5091330;28;20576;-71
2023/01/22 03:48:43;;;;;;;28.00;21.57;;;;;;;;;;5080884;28;20881;-69
2023/01/22 03:51:10;;;;;;;25.63;20.73;;;;;;;;;;5073861;28;20997;-70
2023/01/22 03:53:36;;;;;;;28.27;21.57;;;;;;;;;;5073484;28;20496;-70
2023/01/22 03:56:03;;;;;;;30.00;22.83;;;;;;;;;;5076563;28;20429;-70
2023/01/22 03:58:29;;;;;;;27.97;23.00;;;;;;;;;;5073657;28;20537;-69
2023/01/22 04:00:59;;;;;;;26.43;21.37;;;;;;;;;;5073598;28;20613;-70
2023/01/22 04:03:25;;;;;;;29.40;23.00;;;;;;;;;;5074598;28;20505;-70
2023/01/22 04:05:52;;;;;;;25.37;20.63;;;;;;;;;;5074811;28;20455;-69
2023/01/22 04:08:18;;;;;;;26.23;21.63;;;;;;;;;;5073343;28;20480;-70
2023/01/22 04:10:44;;;;;;;26.03;21.43;;;;;;;;;;5074997;28;20449;-70
2023/01/22 04:13:10;;;;;;;24.43;17.53;;;;;;;;;;5073272;28;20521;-70
2023/01/22 04:15:36;;;;;;;24.90;20.73;;;;;;;;;;5073593;28;20456;-70
2023/01/22 04:18:02;;;;;;;27.87;22.37;;;;;;;;;;5073511;28;20180;-69
2023/01/22 04:20:28;;;;;;;29.43;23.00;;;;;;;;;;5074370;28;20641;-70
2023/01/22 04:22:54;;;;;;;27.67;21.33;;;;;;;;;;5075252;28;20242;-70
2023/01/22 04:25:20;;;;;;;27.67;20.43;;;;;;;;;;5073883;28;20445;-69
2023/01/22 04:27:46;;;;;;;25.40;21.50;;;;;;;;;;5072983;28;20741;-69
2023/01/22 04:30:12;;;;;;;29.17;22.63;;;;;;;;;;5074295;28;20186;-69
2023/01/22 04:32:38;;;;;;;28.47;22.43;;;;;;;;;;5072943;28;20459;-69
2023/01/22 04:35:04;;;;;;;28.37;21.43;;;;;;;;;;5074218;28;20888;-69
2023/01/22 04:37:31;;;;;;;29.00;22.40;;;;;;;;;;5072964;28;20180;-69
2023/01/22 04:39:57;;;;;;;29.00;21.83;;;;;;;;;;5074291;28;20430;-70
2023/01/22 04:42:22;;;;;;;34.70;24.60;;;;;;;;;;5074163;28;20411;-69
2023/01/22 04:44:48;;;;;;;30.90;23.47;;;;;;;;;;5073962;28;20661;-69
2023/01/22 04:47:14;;;;;;;31.07;22.63;;;;;;;;;;5074305;28;20225;-70
2023/01/22 04:49:40;;;;;;;29.90;21.53;;;;;;;;;;5074066;28;20448;-69
2023/01/22 04:52:06;;;;;;;31.30;23.90;;;;;;;;;;5073928;28;20195;-70
2023/01/22 04:54:32;;;;;;;33.23;23.63;;;;;;;;;;5072412;28;20236;-70
2023/01/22 04:56:58;;;;;;;28.93;21.83;;;;;;;;;;5074164;28;20639;-70
2023/01/22 04:59:24;;;;;;;29.33;21.00;;;;;;;;;;5073636;28;20184;-69
2023/01/22 05:01:51;;;;;;;31.03;23.97;;;;;;;;;;5074055;28;20185;-70
2023/01/22 05:04:17;;;;;;;26.50;18.83;;;;;;;;;;5073791;28;20670;-70
2023/01/22 05:06:43;;;;;;;32.97;24.33;;;;;;;;;;5073898;28;20443;-69
2023/01/22 05:09:09;;;;;;;29.03;23.13;;;;;;;;;;5073514;28;20627;-70
2023/01/22 05:11:35;;;;;;;32.27;24.70;;;;;;;;;;5073571;28;20474;-70
2023/01/22 05:14:01;;;;;;;31.43;22.30;;;;;;;;;;5073823;28;20205;-70
2023/01/22 05:16:27;;;;;;;36.83;23.90;;;;;;;;;;5072286;28;20177;-70
2023/01/22 05:18:53;;;;;;;35.10;24.27;;;;;;;;;;5073955;28;20363;-70
2023/01/22 05:21:19;;;;;;;31.00;22.83;;;;;;;;;;5073452;28;20180;-69
2023/01/22 05:23:45;;;;;;;33.83;22.67;;;;;;;;;;5072301;28;20262;-70
2023/01/22 05:26:11;;;;;;;33.83;21.07;;;;;;;;;;5072276;28;20296;-70
2023/01/22 05:28:36;;;;;;;31.07;22.00;;;;;;;;;;5073613;28;20212;-69
2023/01/22 05:31:02;;;;;;;31.30;23.10;;;;;;;;;;5072222;28;20179;-70
2023/01/22 05:33:29;;;;;;;35.37;24.60;;;;;;;;;;5072421;28;20272;-69
2023/01/22 05:35:56;;;;;;;31.60;21.27;;;;;;;;;;5075612;28;20213;-69
2023/01/22 05:38:22;;;;;;;31.93;23.10;;;;;;;;;;5077908;28;20495;-70
2023/01/22 05:40:48;;;;;;;36.53;23.63;;;;;;;;;;5077677;28;20441;-70
2023/01/22 05:43:14;;;;;;;35.50;23.00;;;;;;;;;;5077613;28;20443;-70
2023/01/22 05:45:40;;;;;;;40.57;24.27;;;;;;;;;;5077510;28;20528;-69
2023/01/22 05:48:06;;;;;;;37.57;25.90;;;;;;;;;;5077757;28;20182;-70
2023/01/22 05:50:32;;;;;;;33.13;23.27;;;;;;;;;;5077958;28;20577;-70
2023/01/22 05:52:58;;;;;;;35.60;22.03;;;;;;;;;;5077243;28;20588;-70
2023/01/22 05:55:24;;;;;;;28.40;19.20;;;;;;;;;;5077273;28;20184;-69
2023/01/22 05:57:50;;;;;;;29.97;21.17;;;;;;;;;;5077222;28;20268;-69
2023/01/22 06:00:16;;;;;;;29.53;21.77;;;;;;;;;;5075715;28;20181;-70
2023/01/22 06:02:43;;;;;;;32.27;22.17;;;;;;;;;;5077149;28;20198;-70
2023/01/22 06:05:09;;;;;;;27.37;19.90;;;;;;;;;;5077185;28;20412;-70
2023/01/22 06:07:35;;;;;;;26.30;16.47;;;;;;;;;;5075551;28;20830;-70
2023/01/22 06:10:00;;;;;;;27.97;20.77;;;;;;;;;;5077166;28;20412;-70
2023/01/22 06:12:26;;;;;;;23.60;17.07;;;;;;;;;;5076957;28;20178;-70
2023/01/22 06:14:53;;;;;;;27.57;20.33;;;;;;;;;;5075712;28;20186;-70
2023/01/22 06:17:19;;;;;;;24.83;18.13;;;;;;;;;;5076830;28;20548;-69
2023/01/22 06:19:45;;;;;;;24.10;16.60;;;;;;;;;;5075683;28;20423;-70
2023/01/22 06:22:11;;;;;;;26.23;18.77;;;;;;;;;;5077142;28;20420;-70
2023/01/22 06:24:37;;;;;;;22.87;18.87;;;;;;;;;;5082365;28;20194;-70
2023/01/22 06:27:03;;;;;;;28.13;19.60;;;;;;;;;;5076692;28;20197;-70
2023/01/22 06:29:29;;;;;;;24.07;17.93;;;;;;;;;;5076765;28;20174;-70
2023/01/22 06:31:55;;;;;;;26.87;19.47;;;;;;;;;;5076880;28;20759;-70
2023/01/22 06:34:21;;;;;;;28.60;21.10;;;;;;;;;;5076549;28;20295;-69
2023/01/22 06:36:47;;;;;;;25.17;19.30;;;;;;;;;;5076652;28;20791;-70
2023/01/22 06:39:13;;;;;;;28.13;20.33;;;;;;;;;;5075118;28;20423;-70
2023/01/22 06:41:39;;;;;;;24.20;19.10;;;;;;;;;;5076546;28;20197;-70
2023/01/22 06:44:05;;;;;;;24.53;18.07;;;;;;;;;;5074932;28;20435;-70
2023/01/22 06:46:31;;;;;;;20.27;16.80;;;;;;;;;;5075701;28;20197;-70
2023/01/22 06:49:00;;;;;;;20.37;16.77;;;;;;;;;;5075874;28;20412;-69
2023/01/22 06:51:26;;;;;;;19.67;16.43;;;;;;;;;;5076240;28;20521;-70
2023/01/22 06:53:52;;;;;;;20.47;15.63;;;;;;;;;;5075345;28;20466;-70
2023/01/22 06:56:18;;;;;;;19.70;16.40;;;;;;;;;;5076377;28;20556;-69
2023/01/22 06:58:44;;;;;;;21.57;16.43;;;;;;;;;;5076154;28;20412;-69
2023/01/22 07:01:10;;;;;;;21.07;16.40;;;;;;;;;;5076140;28;20177;-70
2023/01/22 07:03:35;;;;;;;22.77;15.83;;;;;;;;;;5075819;28;20255;-70
2023/01/22 07:06:03;;;;;;;21.03;15.73;;;;;;;;;;5074637;28;20231;-70
2023/01/22 07:08:30;;;;;;;19.37;16.40;;;;;;;;;;5075870;28;20174;-70
2023/01/22 07:10:56;;;;;;;19.97;15.90;;;;;;;;;;5074866;28;20469;-70
2023/01/22 07:13:22;;;;;;;24.17;16.97;;;;;;;;;;5077494;28;20431;-70
2023/01/22 07:15:48;;;;;;;19.40;15.63;;;;;;;;;;5079483;28;20412;-69
2023/01/22 07:18:14;;;;;;;19.90;13.83;;;;;;;;;;5078368;28;20185;-70
2023/01/22 07:20:41;;;;;;;19.17;14.43;;;;;;;;;;5089716;28;20200;-70
2023/01/22 07:23:07;;;;;;;22.23;16.60;;;;;;;;;;5087984;28;20432;-70
2023/01/22 07:25:33;;;;;;;21.83;17.60;;;;;;;;;;5091116;28;20435;-70
2023/01/22 07:28:00;;;;;;;19.63;14.63;;;;;;;;;;5086939;28;20448;-70
2023/01/22 07:30:26;;;;;;;23.40;18.13;;;;;;;;;;5077472;28;20180;-70
2023/01/22 07:32:52;;;;;;;23.87;18.30;;;;;;;;;;5075586;28;20439;-70
2023/01/22 07:35:18;;;;;;;22.80;19.00;;;;;;;;;;5075588;28;20212;-70
2023/01/22 07:37:50;;;;;;;25.77;17.97;;;;;;;;;;5075502;28;20628;-70
2023/01/22 07:40:16;;;;;;;23.00;17.40;;;;;;;;;;5075207;28;20483;-69
2023/01/22 07:42:42;;;;;;;22.93;17.43;;;;;;;;;;5074034;28;20841;-70
2023/01/22 07:45:08;;;;;;;22.63;16.17;;;;;;;;;;5073881;28;20416;-70
2023/01/22 07:47:34;;;;;;;19.17;16.47;;;;;;;;;;5075004;28;20284;-70
2023/01/22 07:50:00;;;;;;;22.17;16.10;;;;;;;;;;5073940;28;20454;-69
2023/01/22 07:52:26;;;;;;;22.07;17.83;;;;;;;;;;5073677;28;20174;-70
2023/01/22 07:54:52;;;;;;;18.33;15.87;;;;;;;;;;5073753;28;20162;-70
2023/01/22 07:57:18;;;;;;;19.43;16.70;;;;;;;;;;5073809;28;20185;-70
2023/01/22 07:59:44;;;;;;;22.37;17.20;;;;;;;;;;5072454;28;20178;-69
2023/01/22 08:02:14;;;;;;;20.40;17.57;;;;;;;;;;5075190;28;20177;-70
2023/01/22 08:04:40;;;;;;;22.07;16.70;;;;;;;;;;5073684;28;20420;-70
2023/01/22 08:07:06;;;;;;;18.23;16.23;;;;;;;;;;5074735;28;20448;-70
2023/01/22 08:09:35;;;;;;;22.03;16.90;;;;;;;;;;5075038;28;20408;-70
2023/01/22 08:12:00;;;;;;;18.77;16.13;;;;;;;;;;5073490;28;20442;-70
2023/01/22 08:14:26;;;;;;;19.53;17.20;;;;;;;;;;5073378;28;20436;-69
2023/01/22 08:16:52;;;;;;;19.10;16.17;;;;;;;;;;5074725;28;20174;-70
2023/01/22 08:19:18;;;;;;;21.63;17.33;;;;;;;;;;5073319;28;20182;-70
2023/01/22 08:21:44;;;;;;;23.37;18.03;;;;;;;;;;5074671;28;20260;-69
2023/01/22 08:24:11;;;;;;;21.27;17.47;;;;;;;;;;5074298;28;20867;-70
2023/01/22 08:26:38;;;;;;;23.93;18.40;;;;;;;;;;5074240;28;20198;-70
2023/01/22 08:29:04;;;;;;;23.63;15.03;;;;;;;;;;5074238;28;20440;-70
2023/01/22 08:31:29;;;;;;;22.80;17.43;;;;;;;;;;5074096;28;20936;-70
2023/01/22 08:33:57;;;;;;;22.13;16.87;;;;;;;;;;5074138;28;20647;-69
2023/01/22 08:36:23;;;;;;;22.77;17.97;;;;;;;;;;5072702;28;20181;-70
2023/01/22 08:38:49;;;;;;;23.13;18.27;;;;;;;;;;5074249;28;20413;-70
2023/01/22 08:41:15;;;;;;;24.77;18.27;;;;;;;;;;5074080;28;20416;-69
2023/01/22 08:43:41;;;;;;;23.43;17.60;;;;;;;;;;5073873;28;20477;-69
2023/01/22 08:46:07;;;;;;;21.23;16.67;;;;;;;;;;5072574;28;20284;-70
2023/01/22 08:48:33;;;;;;;22.03;16.87;;;;;;;;;;5074134;28;20208;-69
2023/01/22 08:50:59;;;;;;;21.50;16.23;;;;;;;;;;5075062;28;20178;-69
2023/01/22 08:53:26;;;;;;;25.43;18.47;;;;;;;;;;5074321;28;20227;-69
2023/01/22 08:55:51;;;;;;;24.83;18.80;;;;;;;;;;5072631;28;20428;-69
2023/01/22 08:58:20;;;;;;;27.43;19.87;;;;;;;;;;5098222;22;20407;-71
2023/01/22 09:00:46;;;;;;;22.73;18.20;;;;;;;;;;5054416;28;20566;-72
2023/01/22 09:03:12;;;;;;;21.80;17.87;;;;;;;;;;5053996;28;20546;-72
2023/01/22 09:05:39;;;;;;;21.70;16.93;;;;;;;;;;5035824;28;20265;-71
2023/01/22 09:08:05;;;;;;;25.90;18.97;;;;;;;;;;5053961;28;20460;-71
2023/01/22 09:10:31;;;;;;;21.40;16.10;;;;;;;;;;5053724;28;20412;-72
2023/01/22 09:13:00;;;;;;;20.97;17.77;;;;;;;;;;5054433;28;20405;-73
2023/01/22 09:15:26;;;;;;;23.67;19.53;;;;;;;;;;5053732;28;20179;-72
2023/01/22 09:17:52;;;;;;;24.30;18.93;;;;;;;;;;5054469;28;20410;-72
2023/01/22 09:20:18;;;;;;;25.87;18.87;;;;;;;;;;5038347;28;20995;-72
2023/01/22 09:22:45;;;;;;;21.80;17.80;;;;;;;;;;5035602;28;20269;-72
2023/01/22 09:25:11;;;;;;;24.87;18.03;;;;;;;;;;5035863;28;20178;-71
2023/01/22 09:27:37;;;;;;;27.10;21.10;;;;;;;;;;5035844;28;20506;-71
2023/01/22 09:30:03;;;;;;;27.70;20.13;;;;;;;;;;5043542;28;20198;-72
2023/01/22 09:32:29;;;;;;;28.30;21.17;;;;;;;;;;5037145;28;20416;-72
2023/01/22 09:34:55;;;;;;;26.83;21.40;;;;;;;;;;5035970;28;20409;-72
2023/01/22 09:37:22;;;;;;;22.73;18.87;;;;;;;;;;5038152;28;20212;-72
2023/01/22 09:39:49;;;;;;;32.77;21.90;;;;;;;;;;5057782;28;20496;-72
2023/01/22 09:42:26;;;;;;;27.30;19.13;;;;;;;;;;5056400;28;20962;-72
2023/01/22 09:44:55;;;;;;;25.47;20.57;;;;;;;;;;5056169;28;20405;-73
2023/01/22 09:47:39;;;;;;;32.17;23.73;;;;;;;;;;5055561;28;20456;-72
2023/01/22 09:50:14;;;;;;;31.43;25.07;;;;;;;;;;5056009;28;20486;-71
2023/01/22 09:52:40;;;;;;;33.13;22.57;;;;;;;;;;5054593;28;20401;-73
2023/01/22 09:55:13;;;;;;;35.40;26.47;;;;;;;;;;5054962;28;20408;-72
2023/01/22 09:57:49;;;;;;;34.50;25.23;;;;;;;;;;5053559;28;20404;-71
2023/01/22 10:00:16;;;;;;;40.80;26.30;;;;;;;;;;5035642;28;20547;-73
2023/01/22 10:02:52;;;;;;;41.83;27.57;;;;;;;;;;5053652;28;20968;-72
2023/01/22 10:05:36;;;;;;;41.20;27.20;;;;;;;;;;5053390;28;20902;-71
2023/01/22 10:08:02;;;;;;;34.40;25.23;;;;;;;;;;5053261;28;20453;-68
2023/01/22 10:10:28;;;;;;;33.27;22.10;;;;;;;;;;5053103;28;20416;-72
2023/01/22 10:13:06;;;;;;;38.47;28.17;;;;;;;;;;5053238;28;20183;-73
2023/01/22 10:15:32;;;;;;;36.20;27.43;;;;;;;;;;5035815;28;20405;-72
2023/01/22 10:17:58;;;;;;;33.90;26.20;;;;;;;;;;5035405;28;20806;-73
2023/01/22 10:20:25;;;;;;;36.37;27.77;;;;;;;;;;5055061;28;20443;-71
2023/01/22 10:23:02;;;;;;;40.77;28.43;;;;;;;;;;5040924;28;20424;-73
2023/01/22 10:25:28;;;;;;;43.07;27.07;;;;;;;;;;5059523;28;20766;-73
2023/01/22 10:28:00;;;;;;;33.50;25.30;;;;;;;;;;5057201;28;20456;-73
2023/01/22 10:30:27;;;;;;;36.07;26.87;;;;;;;;;;5040460;28;20194;-72
2023/01/22 10:32:59;;;;;;;32.10;24.43;;;;;;;;;;5041117;28;20495;-71
2023/01/22 10:35:26;;;;;;;37.47;24.63;;;;;;;;;;5058629;28;20405;-73
2023/01/22 10:37:53;;;;;;;40.00;28.23;;;;;;;;;;5058042;28;20413;-73
2023/01/22 10:40:21;;;;;;;33.47;23.43;;;;;;;;;;5057651;28;20847;-71
2023/01/22 10:42:58;;;;;;;36.23;26.03;;;;;;;;;;5057448;28;20782;-73
2023/01/22 10:45:24;;;;;;;43.87;29.70;;;;;;;;;;5038723;28;20417;-71
2023/01/22 10:47:50;;;;;;;44.43;31.30;;;;;;;;;;5056653;28;20868;-76
2023/01/22 10:50:16;;;;;;;45.33;30.07;;;;;;;;;;5056769;28;20744;-76
2023/01/22 10:52:44;;;;;;;43.40;28.33;;;;;;;;;;5038904;28;20178;-72
2023/01/22 10:55:30;;;;;;;47.27;32.17;;;;;;;;;;5038834;28;20421;-70
2023/01/22 10:58:07;;;;;;;38.80;27.20;;;;;;;;;;5056852;28;20416;-72
2023/01/22 11:00:34;;;;;;;43.53;29.70;;;;;;;;;;5056726;28;20396;-71
2023/01/22 11:03:00;;;;;;;37.13;26.90;;;;;;;;;;5056760;28;20417;-71
2023/01/22 11:05:29;;;;;;;37.17;28.17;;;;;;;;;;5056686;28;20411;-70
2023/01/22 11:07:59;;;;;;;45.00;31.83;;;;;;;;;;5056947;28;20938;-71
2023/01/22 11:10:25;;;;;;;38.63;28.27;;;;;;;;;;5038675;28;20437;-71
2023/01/22 11:12:57;;;;;;;37.63;26.33;;;;;;;;;;5038901;28;21017;-72
2023/01/22 11:15:52;;;;;;;32.50;25.20;;;;;;;;;;5038414;28;20225;-71
2023/01/22 11:18:38;;;;;;;35.73;25.43;;;;;;;;;;5036222;28;20795;-70
2023/01/22 11:21:12;;;;;;;33.03;24.80;;;;;;;;;;5055902;28;20948;-70
2023/01/22 11:23:52;;;;;;;29.77;21.73;;;;;;;;;;5038061;28;20413;-70
2023/01/22 11:26:29;;;;;;;34.43;24.53;;;;;;;;;;5056198;28;20840;-70
2023/01/22 11:29:14;;;;;;;32.47;24.30;;;;;;;;;;5038621;28;20464;-71
2023/01/22 11:31:40;;;;;;;32.80;23.17;;;;;;;;;;5056667;28;20409;-70
2023/01/22 11:34:09;;;;;;;33.23;21.87;;;;;;;;;;5056586;28;20463;-70
2023/01/22 11:36:47;;;;;;;26.37;20.53;;;;;;;;;;5056025;28;20191;-71
2023/01/22 11:39:22;;;;;;;30.13;21.57;;;;;;;;;;5055715;28;20433;-71
2023/01/22 11:41:58;;;;;;;27.27;20.83;;;;;;;;;;5056311;28;20404;-71
2023/01/22 11:44:48;;;;;;;23.77;18.13;;;;;;;;;;5056429;28;20397;-70
2023/01/22 11:47:20;;;;;;;24.33;18.17;;;;;;;;;;5056432;28;20930;-70
2023/01/22 11:49:46;;;;;;;22.90;17.60;;;;;;;;;;5056179;28;20464;-71
2023/01/22 11:52:32;;;;;;;24.77;17.13;;;;;;;;;;5038213;28;20858;-73
2023/01/22 11:55:04;;;;;;;24.40;19.10;;;;;;;;;;5038135;28;20915;-72
2023/01/22 11:57:35;;;;;;;23.93;18.83;;;;;;;;;;5038974;28;20417;-73
2023/01/22 12:00:20;;;;;;;28.77;21.07;;;;;;;;;;5055657;28;20968;-72
2023/01/22 12:02:46;;;;;;;28.83;21.43;;;;;;;;;;5054934;28;20417;-75
2023/01/22 12:05:30;;;;;;;34.20;21.83;;;;;;;;;;5054989;28;20551;-72
2023/01/22 12:08:01;;;;;;;29.07;19.50;;;;;;;;;;5054812;28;20665;-72
2023/01/22 12:10:46;;;;;;;26.90;19.60;;;;;;;;;;5036559;28;20440;-73
2023/01/22 12:13:32;;;;;;;26.00;18.83;;;;;;;;;;5054503;28;20488;-73
2023/01/22 12:16:04;;;;;;;25.63;20.40;;;;;;;;;;5014396;28;20886;-72
2023/01/22 12:18:42;;;;;;;21.77;17.00;;;;;;;;;;5054501;28;20425;-73
2023/01/22 12:21:08;;;;;;;23.87;18.60;;;;;;;;;;5054992;28;20408;-73
2023/01/22 12:23:41;;;;;;;25.13;19.57;;;;;;;;;;5054588;28;20903;-72
2023/01/22 12:26:10;;;;;;;21.10;15.03;;;;;;;;;;5036649;28;20213;-72
2023/01/22 12:28:42;;;;;;;27.57;20.77;;;;;;;;;;5054464;28;20902;-72
2023/01/22 12:31:19;;;;;;;27.87;20.00;;;;;;;;;;5036219;28;20425;-73
2023/01/22 12:33:45;;;;;;;32.43;22.30;;;;;;;;;;5054556;28;20394;-72
2023/01/22 12:36:15;;;;;;;26.20;19.83;;;;;;;;;;5054449;28;20409;-70
2023/01/22 12:38:41;;;;;;;29.40;21.30;;;;;;;;;;5054252;28;20222;-71
2023/01/22 12:41:10;;;;;;;26.70;17.53;;;;;;;;;;5054109;28;20416;-72
2023/01/22 12:43:51;;;;;;;24.37;17.23;;;;;;;;;;5054329;28;20237;-73
2023/01/22 12:46:26;;;;;;;23.97;18.17;;;;;;;;;;5053368;28;20593;-72
2023/01/22 12:48:58;;;;;;;30.80;22.67;;;;;;;;;;5054142;28;20815;-73
2023/01/22 12:51:27;;;;;;;34.07;23.70;;;;;;;;;;5054600;28;20549;-71
2023/01/22 12:53:53;;;;;;;23.23;17.53;;;;;;;;;;5036112;28;20421;-72
2023/01/22 12:56:32;;;;;;;24.37;18.63;;;;;;;;;;5054538;28;20420;-71
2023/01/22 12:58:59;;;;;;;30.13;19.70;;;;;;;;;;5036020;28;20567;-72
2023/01/22 13:01:31;;;;;;;24.70;19.07;;;;;;;;;;5054158;28;20817;-72
2023/01/22 13:04:01;;;;;;;23.00;16.63;;;;;;;;;;5053978;28;20397;-72
2023/01/22 13:06:34;;;;;;;24.73;17.70;;;;;;;;;;5035857;28;20456;-72
2023/01/22 13:09:01;;;;;;;26.50;19.07;;;;;;;;;;5053694;28;20432;-73
2023/01/22 13:11:27;;;;;;;23.20;18.43;;;;;;;;;;5035801;28;20409;-72
2023/01/22 13:14:19;;;;;;;22.90;19.43;;;;;;;;;;5035847;28;20467;-72
2023/01/22 13:16:56;;;;;;;23.00;18.03;;;;;;;;;;5049973;28;20190;-72
2023/01/22 13:19:24;;;;;;;22.13;17.53;;;;;;;;;;5035850;28;20428;-73
2023/01/22 13:21:51;;;;;;;20.20;16.70;;;;;;;;;;5053674;28;20500;-71
2023/01/22 13:24:18;;;;;;;22.07;17.50;;;;;;;;;;5035644;28;20417;-72
2023/01/22 13:26:55;;;;;;;22.37;17.20;;;;;;;;;;5053475;28;20502;-73
2023/01/22 13:29:24;;;;;;;21.17;17.37;;;;;;;;;;5054043;28;20769;-72
2023/01/22 13:32:01;;;;;;;24.80;18.47;;;;;;;;;;5053692;28;20424;-72
2023/01/22 13:34:27;;;;;;;22.73;18.17;;;;;;;;;;5053654;28;20393;-72
2023/01/22 13:36:54;;;;;;;22.80;18.43;;;;;;;;;;5053721;28;20435;-72
2023/01/22 13:39:20;;;;;;;24.67;18.73;;;;;;;;;;5053737;28;20433;-72
2023/01/22 13:41:51;;;;;;;30.37;20.43;;;;;;;;;;5037010;28;20417;-73
2023/01/22 13:44:23;;;;;;;28.53;21.07;;;;;;;;;;5056432;28;20163;-72
2023/01/22 13:46:49;;;;;;;23.93;19.63;;;;;;;;;;5037939;28;20206;-70
2023/01/22 13:49:18;;;;;;;24.80;19.30;;;;;;;;;;5054197;28;20504;-71
2023/01/22 13:51:45;;;;;;;31.07;23.93;;;;;;;;;;5053814;28;20409;-71
2023/01/22 13:54:17;;;;;;;28.20;22.20;;;;;;;;;;5054078;28;20415;-74
2023/01/22 13:56:43;;;;;;;24.83;19.77;;;;;;;;;;5055767;28;20828;-71
2023/01/22 13:59:39;;;;;;;32.17;22.77;;;;;;;;;;5057227;28;20444;-73
2023/01/22 14:02:20;;;;;;;30.37;21.43;;;;;;;;;;5023858;28;20282;-74
2023/01/22 14:04:46;;;;;;;30.57;22.23;;;;;;;;;;5057604;28;20448;-73
2023/01/22 14:07:22;;;;;;;37.00;22.50;;;;;;;;;;5057003;28;20205;-73
2023/01/22 14:09:48;;;;;;;33.10;24.53;;;;;;;;;;5039250;28;20442;-73
2023/01/22 14:12:18;;;;;;;36.53;23.07;;;;;;;;;;5039308;28;20417;-73
2023/01/22 14:14:44;;;;;;;31.80;21.63;;;;;;;;;;5057739;28;20175;-72
2023/01/22 14:17:27;;;;;;;31.90;23.83;;;;;;;;;;5057774;28;20466;-72
2023/01/22 14:19:54;;;;;;;35.07;23.73;;;;;;;;;;5056998;28;20205;-72
2023/01/22 14:22:20;;;;;;;40.50;23.57;;;;;;;;;;5057861;28;20823;-71
2023/01/22 14:24:51;;;;;;;30.27;21.73;;;;;;;;;;5039122;28;20428;-72
2023/01/22 14:27:17;;;;;;;30.83;22.40;;;;;;;;;;5057271;28;20433;-70
2023/01/22 14:29:42;;;;;;;33.77;22.70;;;;;;;;;;5057229;28;20205;-72
2023/01/22 14:32:08;;;;;;;31.37;21.93;;;;;;;;;;5057103;28;20171;-72